sensor_id;sensor_type;location;lat;lon;timestamp;pressure;altitude;pressure_sealevel;temperature;humidity
13968;BME280;39536;52.198;9.920;2022-11-11T00:01:17;101905.69;;;10.66;100.00
13968;BME280;39536;52.198;9.920;2022-11-11T00:03:44;101900.44;;;10.69;100.00
13968;BME280;39536;52.198;9.920;2022-11-11T00:06:12;101899.66;;;10.61;100.00
13968;BME280;39536;52.198;9.920;2022-11-11T00:08:39;101898.78;;;10.60;100.00
13968;BME280;39536;52.198;9.920;2022-11-11T00:11:07;101898.75;;;10.63;100.00
13968;BME280;39536;52.198;9.920;2022-11-11T00:13:34;101894.38;;;10.67;100.00
13968;BME280;39536;52.198;9.920;2022-11-11T00:16:04;101898.72;;;10.67;100.00
13968;BME280;39536;52.198;9.920;2022-11-11T00:18:32;101907.47;;;10.62;100.00
13968;BME280;39536;52.198;9.920;2022-11-11T00:21:16;101903.16;;;10.58;100.00
13968;BME280;39536;52.198;9.920;2022-11-11T00:24:00;101903.25;;;10.49;100.00
13968;BME280;39536;52.198;9.920;2022-11-11T00:26:44;101907.53;;;10.55;100.00
13968;BME280;39536;52.198;9.920;2022-11-11T00:29:11;101910.13;;;10.56;100.00
13968;BME280;39536;52.198;9.920;2022-11-11T00:31:39;101904.94;;;10.55;100.00
13968;BME280;39536;52.198;9.920;2022-11-11T00:34:25;101912.75;;;10.55;100.00
13968;BME280;39536;52.198;9.920;2022-11-11T00:36:52;101921.44;;;10.54;100.00
13968;BME280;39536;52.198;9.920;2022-11-11T00:39:17;101931.91;;;10.51;100.00
13968;BME280;39536;52.198;9.920;2022-11-11T00:41:44;101930.16;;;10.50;100.00
13968;BME280;39536;52.198;9.920;2022-11-11T00:44:10;101928.47;;;10.46;100.00
13968;BME280;39536;52.198;9.920;2022-11-11T00:46:38;101931.03;;;10.50;100.00
13968;BME280;39536;52.198;9.920;2022-11-11T00:49:22;101919.78;;;10.47;100.00
13968;BME280;39536;52.198;9.920;2022-11-11T00:52:06;101925.84;;;10.50;100.00
13968;BME280;39536;52.198;9.920;2022-11-11T00:54:32;101915.44;;;10.46;100.00
13968;BME280;39536;52.198;9.920;2022-11-11T00:56:59;101922.41;;;10.47;100.00
13968;BME280;39536;52.198;9.920;2022-11-11T00:59:26;101927.59;;;10.45;100.00
13968;BME280;39536;52.198;9.920;2022-11-11T01:01:54;101919.75;;;10.48;100.00
13968;BME280;39536;52.198;9.920;2022-11-11T01:04:20;101918.09;;;10.41;100.00
13968;BME280;39536;52.198;9.920;2022-11-11T01:06:47;101921.50;;;10.46;100.00
13968;BME280;39536;52.198;9.920;2022-11-11T01:09:13;101918.06;;;10.43;100.00
13968;BME280;39536;52.198;9.920;2022-11-11T01:11:40;101915.44;;;10.46;100.00
13968;BME280;39536;52.198;9.920;2022-11-11T01:14:06;101915.47;;;10.44;100.00
13968;BME280;39536;52.198;9.920;2022-11-11T01:16:33;101915.47;;;10.44;100.00
13968;BME280;39536;52.198;9.920;2022-11-11T01:19:01;101902.50;;;10.38;100.00
13968;BME280;39536;52.198;9.920;2022-11-11T01:21:28;101902.44;;;10.43;100.00
13968;BME280;39536;52.198;9.920;2022-11-11T01:23:54;101896.38;;;10.44;100.00
13968;BME280;39536;52.198;9.920;2022-11-11T01:26:22;101910.28;;;10.39;100.00
13968;BME280;39536;52.198;9.920;2022-11-11T01:28:50;101915.47;;;10.44;100.00
13968;BME280;39536;52.198;9.920;2022-11-11T01:31:18;101917.25;;;10.40;100.00
13968;BME280;39536;52.198;9.920;2022-11-11T01:33:45;101926.75;;;10.43;100.00
13968;BME280;39536;52.198;9.920;2022-11-11T01:36:17;101932.00;;;10.42;100.00
13968;BME280;39536;52.198;9.920;2022-11-11T01:38:47;101940.69;;;10.40;100.00
13968;BME280;39536;52.198;9.920;2022-11-11T01:41:16;101933.72;;;10.39;100.00
13968;BME280;39536;52.198;9.920;2022-11-11T01:43:58;101935.44;;;10.45;100.00
13968;BME280;39536;52.198;9.920;2022-11-11T01:46:29;101940.56;;;10.50;100.00
13968;BME280;39536;52.198;9.920;2022-11-11T01:49:04;101939.72;;;10.49;100.00
13968;BME280;39536;52.198;9.920;2022-11-11T01:51:52;101943.19;;;10.51;100.00
13968;BME280;39536;52.198;9.920;2022-11-11T01:54:26;101941.41;;;10.55;100.00
13968;BME280;39536;52.198;9.920;2022-11-11T01:56:58;101938.78;;;10.58;100.00
13968;BME280;39536;52.198;9.920;2022-11-11T01:59:27;101944.03;;;10.52;100.00
13968;BME280;39536;52.198;9.920;2022-11-11T02:01:56;101932.75;;;10.51;100.00
13968;BME280;39536;52.198;9.920;2022-11-11T02:04:23;101929.31;;;10.48;100.00
13968;BME280;39536;52.198;9.920;2022-11-11T02:07:09;101926.72;;;10.46;100.00
13968;BME280;39536;52.198;9.920;2022-11-11T02:09:38;101920.69;;;10.43;100.00
13968;BME280;39536;52.198;9.920;2022-11-11T02:12:08;101926.88;;;10.32;100.00
13968;BME280;39536;52.198;9.920;2022-11-11T02:14:55;101926.81;;;10.37;100.00
13968;BME280;39536;52.198;9.920;2022-11-11T02:17:23;101922.50;;;10.36;100.00
13968;BME280;39536;52.198;9.920;2022-11-11T02:19:54;101926.00;;;10.32;100.00
13968;BME280;39536;52.198;9.920;2022-11-11T02:22:31;101920.78;;;10.32;100.00
13968;BME280;39536;52.198;9.920;2022-11-11T02:25:02;101927.78;;;10.28;100.00
13968;BME280;39536;52.198;9.920;2022-11-11T02:27:30;101926.03;;;10.24;100.00
13968;BME280;39536;52.198;9.920;2022-11-11T02:29:58;101926.91;;;10.23;100.00
13968;BME280;39536;52.198;9.920;2022-11-11T02:32:25;101922.63;;;10.19;100.00
13968;BME280;39536;52.198;9.920;2022-11-11T02:34:52;101919.97;;;10.25;100.00
13968;BME280;39536;52.198;9.920;2022-11-11T02:37:20;101928.59;;;10.30;100.00
13968;BME280;39536;52.198;9.920;2022-11-11T02:39:49;101926.88;;;10.28;100.00
13968;BME280;39536;52.198;9.920;2022-11-11T02:42:20;101939.91;;;10.29;100.00
13968;BME280;39536;52.198;9.920;2022-11-11T02:44:47;101940.78;;;10.31;100.00
13968;BME280;39536;52.198;9.920;2022-11-11T02:47:14;101945.97;;;10.31;100.00
13968;BME280;39536;52.198;9.920;2022-11-11T02:49:40;101945.97;;;10.31;100.00
13968;BME280;39536;52.198;9.920;2022-11-11T02:52:07;101958.06;;;10.37;100.00
13968;BME280;39536;52.198;9.920;2022-11-11T02:54:33;101968.50;;;10.38;100.00
13968;BME280;39536;52.198;9.920;2022-11-11T02:57:00;101973.69;;;10.38;100.00
13968;BME280;39536;52.198;9.920;2022-11-11T02:59:34;101977.19;;;10.36;100.00
13968;BME280;39536;52.198;9.920;2022-11-11T03:02:00;101977.25;;;10.31;100.00
13968;BME280;39536;52.198;9.920;2022-11-11T03:04:27;101985.00;;;10.36;100.00
13968;BME280;39536;52.198;9.920;2022-11-11T03:06:53;101978.91;;;10.38;100.00
13968;BME280;39536;52.198;9.920;2022-11-11T03:09:20;101971.91;;;10.42;100.00
13968;BME280;39536;52.198;9.920;2022-11-11T03:11:46;101974.56;;;10.39;100.00
13968;BME280;39536;52.198;9.920;2022-11-11T03:14:13;101975.41;;;10.41;100.00
13968;BME280;39536;52.198;9.920;2022-11-11T03:16:41;101981.47;;;10.42;100.00
13968;BME280;39536;52.198;9.920;2022-11-11T03:19:25;101974.56;;;10.36;100.00
13968;BME280;39536;52.198;9.920;2022-11-11T03:21:51;101958.97;;;10.33;100.00
13968;BME280;39536;52.198;9.920;2022-11-11T03:24:19;101959.88;;;10.27;100.00
13968;BME280;39536;52.198;9.920;2022-11-11T03:26:46;101959.88;;;10.27;100.00
13968;BME280;39536;52.198;9.920;2022-11-11T03:29:12;101954.69;;;10.23;100.00
13968;BME280;39536;52.198;9.920;2022-11-11T03:31:38;101959.06;;;10.22;100.00
13968;BME280;39536;52.198;9.920;2022-11-11T03:34:06;101952.97;;;10.20;100.00
13968;BME280;39536;52.198;9.920;2022-11-11T03:36:47;101958.16;;;10.23;100.00
13968;BME280;39536;52.198;9.920;2022-11-11T03:39:31;101944.31;;;10.20;100.00
13968;BME280;39536;52.198;9.920;2022-11-11T03:41:57;101944.34;;;10.16;100.00
13968;BME280;39536;52.198;9.920;2022-11-11T03:44:24;101940.81;;;10.22;100.00
13968;BME280;39536;52.198;9.920;2022-11-11T03:46:52;101942.50;;;10.25;100.00
13968;BME280;39536;52.198;9.920;2022-11-11T03:49:20;101945.13;;;10.25;100.00
13968;BME280;39536;52.198;9.920;2022-11-11T03:51:47;101939.91;;;10.25;100.00
13968;BME280;39536;52.198;9.920;2022-11-11T03:54:13;101929.47;;;10.25;100.00
13968;BME280;39536;52.198;9.920;2022-11-11T03:56:40;101925.16;;;10.25;100.00
13968;BME280;39536;52.198;9.920;2022-11-11T03:59:06;101935.53;;;10.34;100.00
13968;BME280;39536;52.198;9.920;2022-11-11T04:01:33;101917.28;;;10.36;100.00
13968;BME280;39536;52.198;9.920;2022-11-11T04:04:17;101925.03;;;10.44;100.00
13968;BME280;39536;52.198;9.920;2022-11-11T04:07:02;101917.25;;;10.40;100.00
13968;BME280;39536;52.198;9.920;2022-11-11T04:09:46;101918.97;;;10.40;100.00
13968;BME280;39536;52.198;9.920;2022-11-11T04:12:30;101918.94;;;10.43;100.00
13968;BME280;39536;52.198;9.920;2022-11-11T04:15:20;101913.69;;;10.48;100.00
13968;BME280;39536;52.198;9.920;2022-11-11T04:18:03;101912.78;;;10.52;100.00
13968;BME280;39536;52.198;9.920;2022-11-11T04:20:30;101906.66;;;10.56;100.00
13968;BME280;39536;52.198;9.920;2022-11-11T04:23:15;101910.94;;;10.63;100.00
13968;BME280;39536;52.198;9.920;2022-11-11T04:25:42;101904.84;;;10.64;100.00
13968;BME280;39536;52.198;9.920;2022-11-11T04:28:13;101909.13;;;10.70;100.00
13968;BME280;39536;52.198;9.920;2022-11-11T04:30:57;101910.81;;;10.75;100.00
13968;BME280;39536;52.198;9.920;2022-11-11T04:33:24;101912.59;;;10.70;100.00
13968;BME280;39536;52.198;9.920;2022-11-11T04:35:51;101921.19;;;10.77;100.00
13968;BME280;39536;52.198;9.920;2022-11-11T04:38:19;101921.34;;;10.63;100.00
13968;BME280;39536;52.198;9.920;2022-11-11T04:41:03;101929.97;;;10.70;100.00
13968;BME280;39536;52.198;9.920;2022-11-11T04:43:30;101926.44;;;10.75;100.00
13968;BME280;39536;52.198;9.920;2022-11-11T04:45:57;101924.69;;;10.74;100.00
13968;BME280;39536;52.198;9.920;2022-11-11T04:48:23;101921.22;;;10.74;100.00
13968;BME280;39536;52.198;9.920;2022-11-11T04:50:49;101928.16;;;10.76;100.00
13968;BME280;39536;52.198;9.920;2022-11-11T04:53:16;101928.19;;;10.75;100.00
13968;BME280;39536;52.198;9.920;2022-11-11T04:55:44;101926.50;;;10.69;100.00
13968;BME280;39536;52.198;9.920;2022-11-11T04:58:31;101921.31;;;10.64;100.00
13968;BME280;39536;52.198;9.920;2022-11-11T05:00:58;101917.03;;;10.60;100.00
13968;BME280;39536;52.198;9.920;2022-11-11T05:03:24;101927.50;;;10.57;100.00
13968;BME280;39536;52.198;9.920;2022-11-11T05:05:51;101925.81;;;10.52;100.00
13968;BME280;39536;52.198;9.920;2022-11-11T05:08:37;101917.97;;;10.55;100.00
13968;BME280;39536;52.198;9.920;2022-11-11T05:11:26;101918.00;;;10.52;100.00
13968;BME280;39536;52.198;9.920;2022-11-11T05:13:54;101909.28;;;10.53;100.00
13968;BME280;39536;52.198;9.920;2022-11-11T05:16:42;101916.25;;;10.52;100.00
13968;BME280;39536;52.198;9.920;2022-11-11T05:19:27;101924.94;;;10.50;100.00
13968;BME280;39536;52.198;9.920;2022-11-11T05:22:13;101931.13;;;10.39;100.00
13968;BME280;39536;52.198;9.920;2022-11-11T05:24:41;101944.19;;;10.36;100.00
13968;BME280;39536;52.198;9.920;2022-11-11T05:27:27;101950.31;;;10.31;100.00
13968;BME280;39536;52.198;9.920;2022-11-11T05:29:54;101948.59;;;10.24;100.00
13968;BME280;39536;52.198;9.920;2022-11-11T05:32:21;101959.88;;;10.24;100.00
13968;BME280;39536;52.198;9.920;2022-11-11T05:34:49;101956.50;;;10.16;100.00
13968;BME280;39536;52.198;9.920;2022-11-11T05:37:16;101952.94;;;10.23;100.00
13968;BME280;39536;52.198;9.920;2022-11-11T05:39:43;101962.50;;;10.27;100.00
13968;BME280;39536;52.198;9.920;2022-11-11T05:42:10;101963.34;;;10.29;100.00
13968;BME280;39536;52.198;9.920;2022-11-11T05:44:38;101964.19;;;10.33;100.00
13968;BME280;39536;52.198;9.920;2022-11-11T05:47:04;101962.47;;;10.30;100.00
13968;BME280;39536;52.198;9.920;2022-11-11T05:49:31;101962.50;;;10.21;100.00
13968;BME280;39536;52.198;9.920;2022-11-11T05:51:58;101967.78;;;10.13;100.00
13968;BME280;39536;52.198;9.920;2022-11-11T05:54:25;101971.22;;;10.17;100.00
13968;BME280;39536;52.198;9.920;2022-11-11T05:56:51;101972.09;;;10.14;100.00
13968;BME280;39536;52.198;9.920;2022-11-11T05:59:18;101966.03;;;10.14;100.00
13968;BME280;39536;52.198;9.920;2022-11-11T06:01:46;101973.81;;;10.15;100.00
13968;BME280;39536;52.198;9.920;2022-11-11T06:04:13;101960.88;;;10.08;100.00
13968;BME280;39536;52.198;9.920;2022-11-11T06:06:40;101961.75;;;10.05;100.00
13968;BME280;39536;52.198;9.920;2022-11-11T06:09:06;101956.53;;;10.10;100.00
13968;BME280;39536;52.198;9.920;2022-11-11T06:11:33;101959.13;;;10.08;100.00
13968;BME280;39536;52.198;9.920;2022-11-11T06:14:00;101963.50;;;10.09;100.00
13968;BME280;39536;52.198;9.920;2022-11-11T06:16:27;101966.13;;;10.06;100.00
13968;BME280;39536;52.198;9.920;2022-11-11T06:18:55;101975.63;;;10.09;100.00
13968;BME280;39536;52.198;9.920;2022-11-11T06:21:21;101981.63;;;10.15;100.00
13968;BME280;39536;52.198;9.920;2022-11-11T06:23:49;101983.38;;;10.18;100.00
13968;BME280;39536;52.198;9.920;2022-11-11T06:26:15;101983.38;;;10.16;100.00
13968;BME280;39536;52.198;9.920;2022-11-11T06:28:43;101988.66;;;10.07;100.00
13968;BME280;39536;52.198;9.920;2022-11-11T06:31:12;101986.94;;;10.05;100.00
13968;BME280;39536;52.198;9.920;2022-11-11T06:33:39;101996.44;;;10.13;100.00
13968;BME280;39536;52.198;9.920;2022-11-11T06:36:09;101998.13;;;10.17;100.00
13968;BME280;39536;52.198;9.920;2022-11-11T06:38:37;102003.38;;;10.16;100.00
13968;BME280;39536;52.198;9.920;2022-11-11T06:41:04;102007.69;;;10.17;100.00
13968;BME280;39536;52.198;9.920;2022-11-11T06:43:31;102008.59;;;10.13;100.00
13968;BME280;39536;52.198;9.920;2022-11-11T06:45:58;102016.38;;;10.14;100.00
13968;BME280;39536;52.198;9.920;2022-11-11T06:48:27;102015.53;;;10.12;100.00
13968;BME280;39536;52.198;9.920;2022-11-11T06:50:54;102010.34;;;10.12;100.00
13968;BME280;39536;52.198;9.920;2022-11-11T06:53:27;102014.69;;;10.06;100.00
13968;BME280;39536;52.198;9.920;2022-11-11T06:55:54;102012.13;;;10.01;100.00
13968;BME280;39536;52.198;9.920;2022-11-11T06:58:21;102012.13;;;10.04;100.00
13968;BME280;39536;52.198;9.920;2022-11-11T07:00:48;102009.44;;;10.12;100.00
13968;BME280;39536;52.198;9.920;2022-11-11T07:03:16;102012.06;;;10.10;100.00
13968;BME280;39536;52.198;9.920;2022-11-11T07:05:43;102016.41;;;10.13;100.00
13968;BME280;39536;52.198;9.920;2022-11-11T07:08:12;102019.97;;;9.97;100.00
13968;BME280;39536;52.198;9.920;2022-11-11T07:10:43;102018.19;;;10.05;100.00
13968;BME280;39536;52.198;9.920;2022-11-11T07:13:10;102030.28;;;10.09;100.00
13968;BME280;39536;52.198;9.920;2022-11-11T07:15:37;102025.03;;;10.15;100.00
13968;BME280;39536;52.198;9.920;2022-11-11T07:18:04;102025.91;;;10.17;100.00
13968;BME280;39536;52.198;9.920;2022-11-11T07:20:31;102020.69;;;10.17;100.00
13968;BME280;39536;52.198;9.920;2022-11-11T07:22:57;102025.88;;;10.23;100.00
13968;BME280;39536;52.198;9.920;2022-11-11T07:25:24;102018.94;;;10.21;100.00
13968;BME280;39536;52.198;9.920;2022-11-11T07:27:52;102019.78;;;10.21;100.00
13968;BME280;39536;52.198;9.920;2022-11-11T07:30:19;102013.72;;;10.22;100.00
13968;BME280;39536;52.198;9.920;2022-11-11T07:32:47;102025.00;;;10.23;100.00
13968;BME280;39536;52.198;9.920;2022-11-11T07:35:14;102025.84;;;10.29;100.00
13968;BME280;39536;52.198;9.920;2022-11-11T07:37:42;102025.84;;;10.29;100.00
13968;BME280;39536;52.198;9.920;2022-11-11T07:40:11;102029.34;;;10.28;100.00
13968;BME280;39536;52.198;9.920;2022-11-11T07:42:39;102028.41;;;10.34;100.00
13968;BME280;39536;52.198;9.920;2022-11-11T07:45:08;102032.75;;;10.36;100.00
13968;BME280;39536;52.198;9.920;2022-11-11T07:47:36;102038.78;;;10.42;100.00
13968;BME280;39536;52.198;9.920;2022-11-11T07:50:04;102044.81;;;10.48;100.00
13968;BME280;39536;52.198;9.920;2022-11-11T07:52:31;102050.84;;;10.56;100.00
13968;BME280;39536;52.198;9.920;2022-11-11T07:54:58;102050.00;;;10.50;100.00
13968;BME280;39536;52.198;9.920;2022-11-11T07:57:24;102046.50;;;10.54;100.00
13968;BME280;39536;52.198;9.920;2022-11-11T07:59:51;102044.72;;;10.59;100.00
13968;BME280;39536;52.198;9.920;2022-11-11T08:02:19;102036.09;;;10.54;100.00
13968;BME280;39536;52.198;9.920;2022-11-11T08:04:45;102036.09;;;10.54;100.00
13968;BME280;39536;52.198;9.920;2022-11-11T08:07:12;102041.22;;;10.61;100.00
13968;BME280;39536;52.198;9.920;2022-11-11T08:09:39;102032.53;;;10.64;100.00
13968;BME280;39536;52.198;9.920;2022-11-11T08:12:05;102034.25;;;10.67;100.00
13968;BME280;39536;52.198;9.920;2022-11-11T08:14:49;102028.16;;;10.64;100.00
13968;BME280;39536;52.198;9.920;2022-11-11T08:17:16;102036.81;;;10.70;100.00
13968;BME280;39536;52.198;9.920;2022-11-11T08:19:44;102030.72;;;10.71;100.00
13968;BME280;39536;52.198;9.920;2022-11-11T08:22:10;102037.63;;;10.78;100.00
13968;BME280;39536;52.198;9.920;2022-11-11T08:24:37;102046.22;;;10.88;100.00
13968;BME280;39536;52.198;9.920;2022-11-11T08:27:03;102052.25;;;10.94;100.00
13968;BME280;39536;52.198;9.920;2022-11-11T08:29:30;102038.25;;;11.01;100.00
13968;BME280;39536;52.198;9.920;2022-11-11T08:31:57;102038.97;;;11.14;100.00
13968;BME280;39536;52.198;9.920;2022-11-11T08:34:23;102042.38;;;11.22;100.00
13968;BME280;39536;52.198;9.920;2022-11-11T08:36:51;102041.50;;;11.25;100.00
13968;BME280;39536;52.198;9.920;2022-11-11T08:39:18;102041.38;;;11.32;100.00
13968;BME280;39536;52.198;9.920;2022-11-11T08:41:44;102041.34;;;11.36;100.00
13968;BME280;39536;52.198;9.920;2022-11-11T08:44:11;102037.03;;;11.35;100.00
13968;BME280;39536;52.198;9.920;2022-11-11T08:46:38;102028.22;;;11.43;100.00
13968;BME280;39536;52.198;9.920;2022-11-11T08:49:05;102041.25;;;11.45;100.00
13968;BME280;39536;52.198;9.920;2022-11-11T08:51:33;102035.13;;;11.47;100.00
13968;BME280;39536;52.198;9.920;2022-11-11T08:54:01;102036.84;;;11.50;100.00
13968;BME280;39536;52.198;9.920;2022-11-11T08:56:27;102034.13;;;11.59;100.00
13968;BME280;39536;52.198;9.920;2022-11-11T08:58:54;102038.44;;;11.60;100.00
13968;BME280;39536;52.198;9.920;2022-11-11T09:01:20;102039.19;;;11.70;100.00
13968;BME280;39536;52.198;9.920;2022-11-11T09:03:47;102040.00;;;11.73;100.00
13968;BME280;39536;52.198;9.920;2022-11-11T09:06:13;102039.94;;;11.79;100.00
13968;BME280;39536;52.198;9.920;2022-11-11T09:08:41;102041.66;;;11.80;100.00
13968;BME280;39536;52.198;9.920;2022-11-11T09:11:10;102051.22;;;11.82;100.00
13968;BME280;39536;52.198;9.920;2022-11-11T09:13:37;102040.72;;;11.88;100.00
13968;BME280;39536;52.198;9.920;2022-11-11T09:16:05;102041.56;;;11.90;100.00
13968;BME280;39536;52.198;9.920;2022-11-11T09:18:32;102049.34;;;11.93;100.00
13968;BME280;39536;52.198;9.920;2022-11-11T09:20:59;102050.97;;;12.03;100.00
13968;BME280;39536;52.198;9.920;2022-11-11T09:23:26;102064.97;;;11.97;100.00
13968;BME280;39536;52.198;9.920;2022-11-11T09:25:53;102070.84;;;12.13;100.00
13968;BME280;39536;52.198;9.920;2022-11-11T09:28:21;102079.47;;;12.18;100.00
13968;BME280;39536;52.198;9.920;2022-11-11T09:30:47;102074.94;;;12.31;100.00
13968;BME280;39536;52.198;9.920;2022-11-11T09:33:15;102086.97;;;12.43;100.00
13968;BME280;39536;52.198;9.920;2022-11-11T09:35:43;102086.75;;;12.55;100.00
13968;BME280;39536;52.198;9.920;2022-11-11T09:38:10;102097.09;;;12.61;100.00
13968;BME280;39536;52.198;9.920;2022-11-11T09:40:45;102093.72;;;12.55;100.00
13968;BME280;39536;52.198;9.920;2022-11-11T09:43:26;102089.28;;;12.60;100.00
13968;BME280;39536;52.198;9.920;2022-11-11T09:46:03;102101.31;;;12.71;100.00
13968;BME280;39536;52.198;9.920;2022-11-11T09:48:51;102096.84;;;12.77;100.00
13968;BME280;39536;52.198;9.920;2022-11-11T09:51:25;102092.22;;;12.92;100.00
13968;BME280;39536;52.198;9.920;2022-11-11T09:53:58;102093.97;;;12.92;100.00
13968;BME280;39536;52.198;9.920;2022-11-11T09:56:28;102066.22;;;12.83;100.00
13968;BME280;39536;52.198;9.920;2022-11-11T09:59:02;102096.75;;;12.83;100.00
13968;BME280;39536;52.198;9.920;2022-11-11T10:01:33;102102.94;;;12.79;100.00
13968;BME280;39536;52.198;9.920;2022-11-11T10:04:10;102112.38;;;12.86;100.00
13968;BME280;39536;52.198;9.920;2022-11-11T10:06:39;102106.13;;;12.96;100.00
13968;BME280;39536;52.198;9.920;2022-11-11T10:09:07;102097.44;;;12.94;100.00
13968;BME280;39536;52.198;9.920;2022-11-11T10:11:49;102103.53;;;12.94;100.00
13968;BME280;39536;52.198;9.920;2022-11-11T10:14:18;102115.59;;;13.02;100.00
13968;BME280;39536;52.198;9.920;2022-11-11T10:16:50;102113.56;;;13.19;100.00
13968;BME280;39536;52.198;9.920;2022-11-11T10:19:28;102115.19;;;13.28;100.00
13968;BME280;39536;52.198;9.920;2022-11-11T10:21:57;102117.94;;;13.17;100.00
13968;BME280;39536;52.198;9.920;2022-11-11T10:24:28;102120.31;;;13.32;100.00
13968;BME280;39536;52.198;9.920;2022-11-11T10:26:58;102116.56;;;13.46;100.00
13968;BME280;39536;52.198;9.920;2022-11-11T10:29:30;102120.09;;;13.45;100.00
13968;BME280;39536;52.198;9.920;2022-11-11T10:32:02;102116.34;;;13.58;100.00
13968;BME280;39536;52.198;9.920;2022-11-11T10:34:32;102129.41;;;13.59;100.00
13968;BME280;39536;52.198;9.920;2022-11-11T10:37:00;102123.03;;;13.74;100.00
13968;BME280;39536;52.198;9.920;2022-11-11T10:39:33;102120.53;;;13.67;100.00
13968;BME280;39536;52.198;9.920;2022-11-11T10:42:12;102122.78;;;13.86;100.00
13968;BME280;39536;52.198;9.920;2022-11-11T10:44:41;102128.00;;;13.86;100.00
13968;BME280;39536;52.198;9.920;2022-11-11T10:47:13;102123.56;;;13.90;100.00
13968;BME280;39536;52.198;9.920;2022-11-11T10:49:46;102133.63;;;14.10;100.00
13968;BME280;39536;52.198;9.920;2022-11-11T10:52:19;102132.63;;;14.14;100.00
13968;BME280;39536;52.198;9.920;2022-11-11T10:54:52;102135.88;;;14.27;100.00
13968;BME280;39536;52.198;9.920;2022-11-11T10:57:23;102128.81;;;14.30;100.00
13968;BME280;39536;52.198;9.920;2022-11-11T10:59:59;102123.44;;;14.35;100.00
13968;BME280;39536;52.198;9.920;2022-11-11T11:02:30;102121.53;;;14.43;100.00
13968;BME280;39536;52.198;9.920;2022-11-11T11:05:04;102124.00;;;14.49;100.00
13968;BME280;39536;52.198;9.920;2022-11-11T11:07:42;102114.75;;;14.72;100.00
13968;BME280;39536;52.198;9.920;2022-11-11T11:10:13;102105.09;;;14.74;100.00
13968;BME280;39536;52.198;9.920;2022-11-11T11:12:46;102112.06;;;14.73;100.00
13968;BME280;39536;52.198;9.920;2022-11-11T11:15:20;102111.91;;;14.79;100.00
13968;BME280;39536;52.198;9.920;2022-11-11T11:17:53;102115.44;;;14.78;100.00
13968;BME280;39536;52.198;9.920;2022-11-11T11:20:20;102111.63;;;14.92;100.00
13968;BME280;39536;52.198;9.920;2022-11-11T11:22:49;102116.69;;;14.99;100.00
13968;BME280;39536;52.198;9.920;2022-11-11T11:25:18;102121.25;;;14.91;100.00
13968;BME280;39536;52.198;9.920;2022-11-11T11:27:45;102110.81;;;14.90;100.00
13968;BME280;39536;52.198;9.920;2022-11-11T11:30:14;102104.03;;;14.81;100.00
13968;BME280;39536;52.198;9.920;2022-11-11T11:32:55;102104.63;;;14.92;100.00
13968;BME280;39536;52.198;9.920;2022-11-11T11:35:33;102103.44;;;15.04;100.00
13968;BME280;39536;52.198;9.920;2022-11-11T11:38:01;102099.16;;;15.00;100.00
13968;BME280;39536;52.198;9.920;2022-11-11T11:40:44;102088.88;;;15.25;100.00
13968;BME280;39536;52.198;9.920;2022-11-11T11:43:32;102100.69;;;15.41;99.05
13968;BME280;39536;52.198;9.920;2022-11-11T11:46:00;102106.00;;;15.38;99.12
13968;BME280;39536;52.198;9.920;2022-11-11T11:48:38;102107.63;;;15.44;97.27
13968;BME280;39536;52.198;9.920;2022-11-11T11:51:20;102107.59;;;15.45;97.92
13968;BME280;39536;52.198;9.920;2022-11-11T11:54:00;102102.38;;;15.44;99.41
13968;BME280;39536;52.198;9.920;2022-11-11T11:56:35;102106.63;;;15.48;96.82
13968;BME280;39536;52.198;9.920;2022-11-11T11:59:08;102101.91;;;15.61;96.71
13968;BME280;39536;52.198;9.920;2022-11-11T12:01:44;102107.63;;;15.77;93.05
13968;BME280;39536;52.198;9.920;2022-11-11T12:07:27;102106.50;;;15.84;91.48
13968;BME280;39536;52.198;9.920;2022-11-11T12:10:07;102104.38;;;15.97;89.86
13968;BME280;39536;52.198;9.920;2022-11-11T12:12:41;102103.91;;;15.82;91.18
13968;BME280;39536;52.198;9.920;2022-11-11T12:15:22;102102.41;;;16.05;93.04
13968;BME280;39536;52.198;9.920;2022-11-11T12:17:57;102105.06;;;16.03;92.71
13968;BME280;39536;52.198;9.920;2022-11-11T12:20:38;102108.53;;;16.04;91.32
13968;BME280;39536;52.198;9.920;2022-11-11T12:23:19;102116.16;;;16.13;89.21
13968;BME280;39536;52.198;9.920;2022-11-11T12:25:56;102116.34;;;16.07;89.75
13968;BME280;39536;52.198;9.920;2022-11-11T12:28:38;102118.69;;;16.16;91.62
13968;BME280;39536;52.198;9.920;2022-11-11T12:31:20;102112.63;;;16.14;89.44
13968;BME280;39536;52.198;9.920;2022-11-11T12:34:06;102099.31;;;16.20;88.47
13968;BME280;39536;52.198;9.920;2022-11-11T12:36:40;102113.00;;;16.02;89.07
13968;BME280;39536;52.198;9.920;2022-11-11T12:39:23;102098.94;;;16.03;88.39
13968;BME280;39536;52.198;9.920;2022-11-11T12:42:06;102108.03;;;15.92;88.25
13968;BME280;39536;52.198;9.920;2022-11-11T12:44:40;102118.28;;;16.00;89.22
13968;BME280;39536;52.198;9.920;2022-11-11T12:47:26;102113.78;;;16.05;88.72
13968;BME280;39536;52.198;9.920;2022-11-11T12:50:03;102114.19;;;16.20;89.54
13968;BME280;39536;52.198;9.920;2022-11-11T12:52:48;102105.91;;;16.32;88.40
13968;BME280;39536;52.198;9.920;2022-11-11T12:55:21;102113.97;;;16.27;87.25
13968;BME280;39536;52.198;9.920;2022-11-11T12:58:07;102115.50;;;16.34;87.25
13968;BME280;39536;52.198;9.920;2022-11-11T13:00:42;102113.97;;;16.27;85.68
13968;BME280;39536;52.198;9.920;2022-11-11T13:03:26;102116.72;;;16.23;87.05